Time;durP1;ratioP1;P1;durP2;ratioP2;P2;SDS_P1;SDS_P2;PMS_P1;PMS_P2;Temp;Humidity;BMP_temperature;BMP_pressure;BME280_temperature;BME280_humidity;BME280_pressure;Samples;Min_cycle;Max_cycle;Signal;HPM_P1;HPM_P2
2021/05/08 00:01:10;;;;;;;8.18;2.55;;;;;;;20.96;52.24;100527.88;143738;589;46020;-79
2021/05/08 00:03:38;;;;;;;6.72;2.30;;;;;;;21.05;51.59;100523.66;143743;567;46008;-79
2021/05/08 00:06:08;;;;;;;11.10;2.70;;;;;;;21.06;51.52;100524.50;143743;638;46008;-77
2021/05/08 00:08:36;;;;;;;6.20;2.53;;;;;;;21.06;51.99;100516.50;143739;594;46018;-76
2021/05/08 00:11:03;;;;;;;7.45;2.30;;;;;;;21.08;51.70;100511.91;143741;594;46917;-77
2021/05/08 00:13:31;;;;;;;8.13;2.20;;;;;;;20.98;51.89;100530.41;143743;622;46008;-77
2021/05/08 00:15:58;;;;;;;9.18;2.00;;;;;;;21.02;51.34;100547.06;143741;588;47010;-77
2021/05/08 00:18:25;;;;;;;6.70;2.25;;;;;;;20.98;51.16;100554.44;143740;589;46018;-77
2021/05/08 00:20:52;;;;;;;6.85;2.33;;;;;;;20.95;51.06;100552.00;143742;587;46008;-78
2021/05/08 00:23:20;;;;;;;6.05;2.05;;;;;;;20.98;50.94;100554.44;143742;572;46018;-78
2021/05/08 00:25:47;;;;;;;7.80;2.03;;;;;;;21.00;50.76;100570.34;143746;569;46010;-76
2021/05/08 00:28:14;;;;;;;5.53;2.22;;;;;;;21.00;50.53;100581.03;143739;699;46016;-75
2021/05/08 00:30:41;;;;;;;6.10;2.35;;;;;;;21.01;50.52;100585.38;143740;585;46008;-75
2021/05/08 00:33:08;;;;;;;6.70;1.80;;;;;;;20.95;50.36;100589.37;143740;641;47008;-76
2021/05/08 00:35:35;;;;;;;5.55;2.00;;;;;;;20.92;50.32;100593.09;143742;584;46008;-75
2021/05/08 00:38:02;;;;;;;7.18;1.70;;;;;;;20.86;50.30;100590.03;143738;581;47020;-76
2021/05/08 00:40:29;;;;;;;7.18;1.62;;;;;;;20.78;50.11;100587.94;143740;581;46021;-75
2021/05/08 00:42:56;;;;;;;4.03;1.65;;;;;;;20.81;49.63;100584.19;143739;575;46018;-76
2021/05/08 00:45:24;;;;;;;7.03;1.75;;;;;;;20.79;49.28;100595.84;143743;628;46008;-75
2021/05/08 00:48:12;;;;;;;7.75;1.90;;;;;;;20.84;49.39;100598.16;143741;591;46017;-75
2021/05/08 00:50:40;;;;;;;7.53;1.83;;;;;;;20.85;49.76;100604.34;143742;576;46020;-76
2021/05/08 00:53:09;;;;;;;7.12;2.20;;;;;;;20.85;50.12;100617.69;143743;607;46008;-76
2021/05/08 00:55:38;;;;;;;4.82;2.03;;;;;;;20.89;50.17;100617.34;143743;631;47010;-76
2021/05/08 00:58:07;;;;;;;9.35;2.15;;;;;;;20.96;50.20;100601.75;143739;605;47018;-75
2021/05/08 01:00:36;;;;;;;6.25;1.80;;;;;;;21.01;49.92;100586.25;143741;588;46010;-73
2021/05/08 01:03:03;;;;;;;6.65;1.87;;;;;;;21.07;49.58;100575.09;143740;672;46019;-78
2021/05/08 01:05:32;;;;;;;9.13;2.12;;;;;;;21.01;49.55;100572.91;143742;579;47010;-74
2021/05/08 01:08:04;;;;;;;6.15;1.95;;;;;;;21.01;49.96;100558.69;143737;573;47018;-77
2021/05/08 01:10:33;;;;;;;6.28;1.90;;;;;;;21.00;49.97;100567.69;143742;671;46008;-82
2021/05/08 01:13:04;;;;;;;6.25;1.80;;;;;;;21.03;49.95;100575.47;143742;626;46018;-82
2021/05/08 01:15:31;;;;;;;4.37;1.80;;;;;;;21.05;49.55;100560.16;143742;662;47010;-81
2021/05/08 01:17:58;;;;;;;5.95;2.42;;;;;;;21.09;49.45;100565.19;143740;644;46909;-85
2021/05/08 01:20:25;;;;;;;7.37;2.00;;;;;;;21.11;49.13;100555.22;143740;670;46020;-86
2021/05/08 01:22:53;;;;;;;6.03;2.15;;;;;;;21.13;49.43;100550.62;143744;572;46010;-82
2021/05/08 01:25:25;;;;;;;6.82;2.00;;;;;;;21.15;49.53;100545.19;143741;567;48006;-86
2021/05/08 01:27:58;;;;;;;6.82;1.92;;;;;;;21.17;49.59;100526.38;143739;630;46016;-80
2021/05/08 01:30:34;;;;;;;8.10;2.27;;;;;;;21.15;49.54;100536.34;143741;563;46008;-79
2021/05/08 01:33:04;;;;;;;5.65;2.30;;;;;;;21.12;49.64;100524.91;143743;589;46008;-74
2021/05/08 01:35:32;;;;;;;9.40;2.67;;;;;;;21.08;49.82;100520.75;143743;597;46020;-73
2021/05/08 01:38:00;;;;;;;7.60;3.10;;;;;;;21.08;49.97;100518.09;143741;620;46016;-74
2021/05/08 01:40:33;;;;;;;9.88;3.65;;;;;;;21.13;49.54;100501.72;143740;674;47008;-74
2021/05/08 01:43:00;;;;;;;10.85;4.22;;;;;;;21.11;50.03;100485.81;143742;665;46018;-82
2021/05/08 01:45:27;;;;;;;9.88;3.47;;;;;;;21.05;50.29;100485.44;143743;655;46008;-82
2021/05/08 01:51:40;;;;;;;10.77;4.20;;;;;;;20.99;50.62;100500.09;143742;569;46008;-85
2021/05/08 01:54:07;;;;;;;8.75;4.03;;;;;;;21.01;50.55;100495.50;143741;600;45909;-77
2021/05/08 01:56:34;;;;;;;10.00;4.07;;;;;;;20.93;50.92;100504.09;143742;636;47010;-82
2021/05/08 01:59:01;;;;;;;9.02;3.90;;;;;;;20.88;51.23;100503.56;143741;623;46020;-77
2021/05/08 02:01:28;;;;;;;9.85;4.07;;;;;;;20.83;51.26;100492.41;143743;645;46008;-78
2021/05/08 02:03:56;;;;;;;11.50;3.97;;;;;;;20.78;51.16;100467.87;143741;604;47011;-79
2021/05/08 02:06:24;;;;;;;9.00;3.92;;;;;;;20.58;52.38;100467.50;143743;592;46020;-79
2021/05/08 02:08:51;;;;;;;11.85;3.60;;;;;;;20.65;51.16;100478.56;143740;594;47008;-80
2021/05/08 02:11:20;;;;;;;7.00;3.28;;;;;;;20.67;51.37;100474.00;143742;586;46009;-81
2021/05/08 02:13:47;;;;;;;9.48;3.20;;;;;;;20.70;51.32;100464.94;143741;634;46008;-82
2021/05/08 02:16:14;;;;;;;7.15;3.30;;;;;;;20.74;50.96;100455.75;143741;601;46020;-84
2021/05/08 02:18:41;;;;;;;9.80;3.00;;;;;;;20.81;50.94;100456.12;143738;569;46021;-86
2021/05/08 02:24:57;;;;;;;9.90;3.10;;;;;;;20.91;50.12;100449.12;143741;567;47008;-86
2021/05/08 02:27:24;;;;;;;9.48;3.20;;;;;;;20.89;50.40;100451.06;143742;603;47010;-85
2021/05/08 02:29:51;;;;;;;8.25;3.62;;;;;;;20.96;50.42;100453.13;143741;619;46010;-84
2021/05/08 02:32:19;;;;;;;5.22;2.90;;;;;;;20.96;49.98;100463.81;143737;569;46021;-83
2021/05/08 02:34:46;;;;;;;9.05;3.03;;;;;;;21.04;50.51;100476.59;143743;587;46018;-84
2021/05/08 02:37:13;;;;;;;9.07;3.00;;;;;;;21.14;50.37;100476.75;143741;590;46020;-78
2021/05/08 02:39:40;;;;;;;11.27;3.78;;;;;;;21.18;50.27;100498.72;143740;568;46024;-79
2021/05/08 02:42:07;;;;;;;9.90;3.42;;;;;;;21.12;50.56;100508.06;143741;612;47010;-79
2021/05/08 02:44:35;;;;;;;9.75;3.28;;;;;;;21.05;50.42;100521.00;143739;596;46018;-79
2021/05/08 02:47:02;;;;;;;7.53;3.10;;;;;;;20.96;50.92;100529.69;143742;564;47010;-79
2021/05/08 02:49:29;;;;;;;10.50;3.30;;;;;;;20.89;51.28;100541.78;143740;582;46010;-79
2021/05/08 02:51:56;;;;;;;12.52;3.95;;;;;;;20.72;51.46;100543.91;143744;585;46008;-80
2021/05/08 02:54:23;;;;;;;10.70;4.03;;;;;;;20.52;51.74;100510.63;143740;566;46018;-85
2021/05/08 02:56:50;;;;;;;12.02;3.92;;;;;;;20.62;51.80;100534.81;143741;631;46021;-85
2021/05/08 02:59:18;;;;;;;19.42;4.43;;;;;;;20.60;52.22;100526.09;143742;657;46010;-87
2021/05/08 03:01:45;;;;;;;12.45;3.80;;;;;;;20.66;52.02;100543.47;143740;599;46021;-86
2021/05/08 03:04:12;;;;;;;15.70;4.15;;;;;;;20.68;52.05;100550.41;143742;592;46016;-90
2021/05/08 03:06:39;;;;;;;14.00;3.87;;;;;;;20.73;52.31;100558.91;143742;579;46021;-87
2021/05/08 03:09:06;;;;;;;14.87;4.18;;;;;;;20.77;52.63;100568.41;143740;662;46020;-87
2021/05/08 03:11:33;;;;;;;11.57;3.83;;;;;;;20.83;51.80;100569.78;143741;578;46008;-87
2021/05/08 03:14:00;;;;;;;10.57;3.95;;;;;;;20.87;51.87;100583.75;143742;592;46008;-87
2021/05/08 03:16:29;;;;;;;15.32;4.32;;;;;;;20.83;52.76;100611.59;143743;635;46027;-87
2021/05/08 03:18:56;;;;;;;15.15;4.20;;;;;;;20.80;53.35;100615.34;143739;570;46908;-86
2021/05/08 03:21:23;;;;;;;12.30;4.07;;;;;;;20.96;55.15;100599.91;143738;559;46020;-84
2021/05/08 03:23:50;;;;;;;9.93;3.60;;;;;;;20.89;58.33;100563.16;143741;574;45909;-92
2021/05/08 03:26:17;;;;;;;11.40;4.57;;;;;;;20.94;59.40;100587.66;143741;569;46008;-86
2021/05/08 03:28:44;;;;;;;19.05;4.18;;;;;;;20.85;59.52;100588.34;143739;577;46020;-90
2021/05/08 03:31:11;;;;;;;12.75;3.72;;;;;;;20.94;59.32;100577.84;143738;575;46020;-88
2021/05/08 03:33:38;;;;;;;11.77;4.32;;;;;;;20.90;59.03;100570.16;143738;566;47008;-91
2021/05/08 03:36:06;;;;;;;11.35;3.70;;;;;;;20.92;58.69;100568.25;143739;596;46010;-90
2021/05/08 03:38:33;;;;;;;11.48;3.80;;;;;;;20.94;58.06;100577.84;143737;592;46020;-85
2021/05/08 03:41:00;;;;;;;10.57;3.90;;;;;;;20.94;58.67;100576.97;143740;644;46008;-84
2021/05/08 03:43:27;;;;;;;10.90;3.95;;;;;;;20.85;58.45;100573.19;143740;581;45018;-81
2021/05/08 03:45:54;;;;;;;10.38;4.00;;;;;;;20.66;61.16;100564.78;143739;573;46022;-87
2021/05/08 03:48:22;;;;;;;9.57;4.03;;;;;;;20.65;61.48;100571.09;143740;567;46019;-82
2021/05/08 03:50:49;;;;;;;11.77;3.80;;;;;;;20.79;58.34;100574.50;143740;578;46008;-84
2021/05/08 03:53:16;;;;;;;8.15;3.60;;;;;;;20.87;58.22;100583.75;143739;590;46018;-86
2021/05/08 03:55:44;;;;;;;8.73;3.62;;;;;;;20.95;57.65;100592.03;143740;639;47010;-85
2021/05/08 03:58:11;;;;;;;11.52;3.87;;;;;;;21.02;57.48;100576.41;143737;590;46033;-81
2021/05/08 04:00:38;;;;;;;19.58;5.05;;;;;;;20.92;58.16;100558.41;143740;594;46026;-82
2021/05/08 04:03:06;;;;;;;14.80;4.70;;;;;;;20.94;56.89;100551.16;143735;603;47008;-82
2021/05/08 04:05:33;;;;;;;12.45;4.80;;;;;;;20.85;56.74;100537.66;143740;569;46020;-79
2021/05/08 04:08:00;;;;;;;15.27;4.78;;;;;;;20.84;55.98;100530.59;143737;577;46909;-81
2021/05/08 04:10:27;;;;;;;13.80;4.57;;;;;;;20.88;56.11;100502.72;143740;619;46917;-83
2021/05/08 04:12:54;;;;;;;16.90;5.35;;;;;;;20.84;55.89;100477.25;143739;589;46018;-83
2021/05/08 04:15:21;;;;;;;15.07;4.95;;;;;;;20.81;55.57;100459.66;143740;559;46008;-82
2021/05/08 04:17:48;;;;;;;10.88;4.68;;;;;;;20.77;55.84;100451.00;143736;645;46019;-84
2021/05/08 04:20:15;;;;;;;10.88;5.00;;;;;;;20.82;55.53;100447.16;143740;590;46008;-84
2021/05/08 04:22:43;;;;;;;12.93;5.35;;;;;;;20.81;55.38;100440.97;143740;569;46010;-81
2021/05/08 04:25:11;;;;;;;13.18;4.78;;;;;;;20.74;55.17;100455.75;143739;648;46021;-79
2021/05/08 04:27:38;;;;;;;13.88;4.60;;;;;;;20.65;55.06;100481.25;143737;587;47020;-78
2021/05/08 04:30:07;;;;;;;13.60;4.97;;;;;;;20.52;55.74;100493.81;143741;594;46008;-76
2021/05/08 04:32:34;;;;;;;13.95;5.30;;;;;;;20.34;56.62;100501.31;143741;571;46008;-78
2021/05/08 04:35:01;;;;;;;20.58;5.25;;;;;;;20.28;57.21;100498.13;143740;569;47010;-78
2021/05/08 04:37:28;;;;;;;13.02;4.93;;;;;;;20.57;55.96;100505.81;143736;565;47018;-83
2021/05/08 04:39:56;;;;;;;14.07;5.47;;;;;;;20.64;56.53;100508.91;143741;587;46008;-82
2021/05/08 04:42:31;;;;;;;16.20;5.15;;;;;;;20.82;55.84;100504.03;143740;651;46018;-81
2021/05/08 04:44:58;;;;;;;13.30;5.40;;;;;;;20.92;55.53;100509.53;143741;591;46010;-76
2021/05/08 04:47:26;;;;;;;11.68;5.00;;;;;;;20.93;55.52;100508.59;143738;585;46017;-80
2021/05/08 04:49:57;;;;;;;17.83;4.60;;;;;;;20.94;55.40;100504.91;143739;594;46008;-81
2021/05/08 04:52:25;;;;;;;13.73;5.00;;;;;;;20.83;57.02;100505.75;143742;587;46010;-81
2021/05/08 04:54:52;;;;;;;13.10;4.35;;;;;;;21.19;56.06;100511.09;143743;564;47011;-82
2021/05/08 04:57:20;;;;;;;15.90;5.00;;;;;;;21.00;58.37;100541.00;143737;617;47006;-82
2021/05/08 04:59:47;;;;;;;14.13;5.12;;;;;;;21.15;58.27;100557.69;143738;572;47008;-79
2021/05/08 05:02:14;;;;;;;10.93;4.93;;;;;;;21.21;59.49;100567.88;143740;590;46018;-80
2021/05/08 05:04:41;;;;;;;11.90;4.57;;;;;;;21.22;59.15;100577.59;143738;587;47020;-78
2021/05/08 05:07:08;;;;;;;11.07;4.47;;;;;;;21.32;58.69;100593.78;143738;566;46909;-77
2021/05/08 05:09:35;;;;;;;12.27;4.65;;;;;;;21.37;58.26;100586.28;143739;609;47008;-75
2021/05/08 05:12:02;;;;;;;10.68;4.30;;;;;;;21.40;57.68;100599.41;143737;570;46018;-76
2021/05/08 05:14:29;;;;;;;9.88;3.40;;;;;;;21.61;56.70;100610.28;143741;582;47013;-76
2021/05/08 05:16:56;;;;;;;10.65;2.95;;;;;;;21.73;54.91;100622.72;143738;701;46030;-78
2021/05/08 05:19:24;;;;;;;9.52;3.25;;;;;;;21.80;55.04;100641.81;143742;570;46008;-77
2021/05/08 05:21:51;;;;;;;12.70;3.33;;;;;;;21.95;55.61;100646.00;143740;569;46018;-78
2021/05/08 05:24:18;;;;;;;13.75;3.55;;;;;;;22.04;55.68;100632.88;143740;589;46021;-86
2021/05/08 05:26:45;;;;;;;9.32;3.45;;;;;;;22.15;55.48;100639.06;143738;577;46010;-86
2021/05/08 05:29:12;;;;;;;13.68;3.95;;;;;;;22.17;55.89;100656.84;143740;608;46020;-85
2021/05/08 05:31:40;;;;;;;8.40;3.72;;;;;;;22.28;55.88;100651.47;143737;620;47008;-86
2021/05/08 05:34:07;;;;;;;11.65;3.40;;;;;;;22.43;54.81;100647.66;143739;569;46021;-85
2021/05/08 05:36:35;;;;;;;13.27;3.40;;;;;;;22.65;54.41;100641.44;143737;606;46016;-89
2021/05/08 05:39:03;;;;;;;9.07;2.70;;;;;;;22.96;54.03;100647.00;143739;630;46009;-91
2021/05/08 05:41:32;;;;;;;10.60;3.53;;;;;;;22.96;53.08;100659.53;143739;625;46016;-89
2021/05/08 05:44:01;;;;;;;9.98;3.08;;;;;;;23.01;53.78;100661.84;143741;631;47010;-88
2021/05/08 05:46:28;;;;;;;10.88;3.20;;;;;;;23.24;53.88;100662.66;143739;588;45909;-91
2021/05/08 05:48:55;;;;;;;13.05;2.75;;;;;;;23.47;53.71;100660.75;143740;613;45042;-90
2021/05/08 05:51:22;;;;;;;6.22;3.03;;;;;;;23.30;55.67;100668.34;143740;565;46018;-80
2021/05/08 05:53:56;;;;;;;7.00;3.30;;;;;;;23.25;55.56;100664.34;143741;585;46023;-85
2021/05/08 05:56:25;;;;;;;7.70;3.28;;;;;;;23.21;55.77;100669.12;143743;572;46010;-88
2021/05/08 05:58:53;;;;;;;8.02;3.05;;;;;;;23.30;54.83;100667.50;143739;639;46008;-76
2021/05/08 06:01:20;;;;;;;6.97;2.67;;;;;;;23.45;54.83;100658.19;143738;627;46021;-86
2021/05/08 06:03:48;;;;;;;8.32;2.60;;;;;;;23.68;54.59;100654.56;143741;589;46008;-86
2021/05/08 06:06:15;;;;;;;9.52;2.72;;;;;;;23.95;54.44;100667.50;143737;579;46012;-78
2021/05/08 06:08:42;;;;;;;4.50;2.28;;;;;;;23.97;53.53;100671.72;143740;567;46010;-77
2021/05/08 06:11:09;;;;;;;6.97;2.83;;;;;;;23.90;54.99;100675.06;143741;579;46008;-78
2021/05/08 06:13:37;;;;;;;6.57;2.78;;;;;;;23.87;54.91;100678.84;143742;603;46020;-76
2021/05/08 06:16:06;;;;;;;8.50;3.15;;;;;;;23.79;55.26;100684.00;143740;631;46010;-78
2021/05/08 06:18:36;;;;;;;8.38;2.83;;;;;;;23.82;54.45;100673.88;143739;609;46010;-80
2021/05/08 06:21:04;;;;;;;7.28;2.60;;;;;;;23.93;53.59;100675.66;143741;619;46010;-79
2021/05/08 06:23:32;;;;;;;5.80;2.55;;;;;;;24.17;53.62;100678.06;143739;570;46998;-79
2021/05/08 06:25:59;;;;;;;8.43;2.60;;;;;;;24.23;52.25;100675.84;143738;692;46016;-80
2021/05/08 06:28:26;;;;;;;8.57;2.80;;;;;;;24.40;52.62;100663.63;143738;565;46008;-79
2021/05/08 06:30:55;;;;;;;6.22;2.80;;;;;;;24.51;52.21;100660.87;143740;564;46019;-79
2021/05/08 06:33:24;;;;;;;7.43;2.87;;;;;;;24.57;50.72;100662.16;143740;585;47010;-79
2021/05/08 06:35:51;;;;;;;7.40;2.62;;;;;;;24.72;51.64;100665.38;143736;772;46016;-78
2021/05/08 06:38:18;;;;;;;10.75;2.62;;;;;;;24.77;51.37;100680.06;143740;625;46008;-74
2021/05/08 06:40:46;;;;;;;9.65;2.55;;;;;;;24.83;51.47;100657.19;143738;574;46018;-80
2021/05/08 06:43:13;;;;;;;9.88;2.40;;;;;;;25.16;51.14;100673.94;143739;764;47010;-78
2021/05/08 06:45:40;;;;;;;11.23;2.60;;;;;;;25.32;50.50;100679.62;143736;585;47011;-78
2021/05/08 06:48:08;;;;;;;6.90;2.40;;;;;;;25.48;49.82;100671.03;143740;728;46020;-79
2021/05/08 06:50:35;;;;;;;10.82;2.67;;;;;;;25.42;47.63;100666.22;143738;658;46008;-79
2021/05/08 06:53:03;;;;;;;6.72;2.70;;;;;;;25.54;47.79;100666.94;143741;567;46026;-80
2021/05/08 06:55:30;;;;;;;7.72;3.00;;;;;;;25.43;48.11;100662.56;143738;632;46010;-85
2021/05/08 06:57:58;;;;;;;13.27;2.62;;;;;;;25.59;47.18;100653.94;143741;617;46008;-76
2021/05/08 07:00:25;;;;;;;8.48;2.60;;;;;;;25.82;48.75;100646.41;143740;569;46018;-69
2021/05/08 07:02:52;;;;;;;9.25;2.45;;;;;;;25.97;48.59;100644.13;143742;644;46020;-82
2021/05/08 07:05:19;;;;;;;11.40;2.80;;;;;;;26.17;47.72;100646.78;143738;585;46018;-84
2021/05/08 07:07:46;;;;;;;6.55;2.30;;;;;;;26.32;46.60;100642.59;143739;898;46021;-82
2021/05/08 07:10:13;;;;;;;7.55;2.40;;;;;;;26.35;47.16;100645.03;143739;579;46018;-84
2021/05/08 07:12:40;;;;;;;9.63;2.70;;;;;;;26.48;46.72;100639.28;143740;608;47010;-82
2021/05/08 07:15:09;;;;;;;8.88;2.70;;;;;;;26.49;46.74;100635.62;143735;588;47018;-82
2021/05/08 07:17:36;;;;;;;8.60;2.80;;;;;;;26.50;42.26;100626.56;143740;582;46008;-82
2021/05/08 07:20:04;;;;;;;7.00;2.65;;;;;;;26.52;44.70;100629.94;143736;603;46016;-82
2021/05/08 07:22:31;;;;;;;6.03;2.20;;;;;;;26.52;45.29;100629.09;143738;608;46020;-81
2021/05/08 07:24:58;;;;;;;8.07;2.65;;;;;;;26.56;43.98;100627.78;143738;578;46020;-83
2021/05/08 07:27:25;;;;;;;5.75;2.00;;;;;;;26.69;42.43;100625.56;143741;613;46008;-81
2021/05/08 07:29:52;;;;;;;8.35;2.30;;;;;;;26.74;43.88;100622.47;143738;612;46019;-81
2021/05/08 07:32:20;;;;;;;7.22;2.25;;;;;;;26.84;43.89;100622.41;143738;603;48010;-83
2021/05/08 07:34:47;;;;;;;9.25;2.70;;;;;;;27.09;44.03;100615.47;143737;590;46016;-89
2021/05/08 07:37:14;;;;;;;6.57;2.60;;;;;;;27.25;43.01;100622.00;143740;570;46010;-81
2021/05/08 07:39:42;;;;;;;10.77;2.62;;;;;;;26.99;40.84;100628.97;143736;597;46018;-80
2021/05/08 07:42:09;;;;;;;8.35;2.50;;;;;;;26.73;40.87;100626.16;143739;583;47010;-80
2021/05/08 07:44:36;;;;;;;9.88;2.40;;;;;;;26.57;40.53;100632.16;143737;571;46018;-80
2021/05/08 07:47:03;;;;;;;13.70;2.87;;;;;;;26.37;41.30;100635.94;143739;605;46010;-81
2021/05/08 07:49:30;;;;;;;12.37;2.67;;;;;;;26.32;40.90;100642.59;143740;619;46008;-79
2021/05/08 07:51:57;;;;;;;9.73;2.42;;;;;;;26.27;41.36;100635.97;143740;572;47010;-79
2021/05/08 07:54:24;;;;;;;8.20;2.62;;;;;;;26.13;41.01;100635.44;143740;607;46010;-80
2021/05/08 07:56:51;;;;;;;8.73;2.50;;;;;;;26.20;40.80;100645.66;143739;607;46020;-80
2021/05/08 07:59:18;;;;;;;13.18;2.50;;;;;;;26.32;40.84;100633.69;143738;603;46024;-80
2021/05/08 08:01:46;;;;;;;6.25;2.28;;;;;;;26.34;40.26;100632.56;143736;630;46020;-80
2021/05/08 08:04:13;;;;;;;7.62;2.35;;;;;;;26.23;39.30;100630.06;143737;579;46018;-81
2021/05/08 08:06:40;;;;;;;6.00;2.30;;;;;;;26.40;39.50;100633.81;143739;569;46008;-80
2021/05/08 08:09:07;;;;;;;10.25;2.72;;;;;;;26.49;40.30;100634.75;143740;583;46008;-81
2021/05/08 08:11:36;;;;;;;7.55;2.50;;;;;;;26.23;39.77;100639.97;143740;566;47010;-80
2021/05/08 08:14:03;;;;;;;8.73;2.40;;;;;;;26.27;39.70;100634.16;143736;598;48018;-80
2021/05/08 08:16:31;;;;;;;7.93;2.42;;;;;;;26.38;40.42;100635.81;143740;609;46008;-78
2021/05/08 08:18:58;;;;;;;9.13;2.40;;;;;;;26.40;40.52;100639.19;143739;655;46008;-79
2021/05/08 08:21:25;;;;;;;6.87;2.42;;;;;;;26.50;40.26;100637.31;143741;605;47010;-81
2021/05/08 08:23:53;;;;;;;13.75;2.60;;;;;;;26.58;40.13;100641.09;143738;593;46909;-79
2021/05/08 08:26:20;;;;;;;4.85;2.20;;;;;;;27.03;38.86;100640.31;143740;638;46008;-81
2021/05/08 08:28:47;;;;;;;5.95;2.50;;;;;;;26.88;40.17;100652.59;143740;598;45018;-81
2021/05/08 08:31:14;;;;;;;6.78;2.47;;;;;;;27.11;39.75;100661.94;143744;585;46000;-79
2021/05/08 08:33:41;;;;;;;6.22;2.40;;;;;;;27.27;38.09;100663.09;143741;576;45016;-80
2021/05/08 08:36:08;;;;;;;6.18;2.03;;;;;;;27.40;37.89;100666.31;143739;576;46917;-79
2021/05/08 08:38:36;;;;;;;9.52;2.58;;;;;;;27.18;38.15;100671.09;143741;627;46008;-80
2021/05/08 08:41:03;;;;;;;11.48;2.45;;;;;;;27.20;38.32;100676.34;143741;582;47010;-81
2021/05/08 08:43:31;;;;;;;9.82;2.47;;;;;;;27.06;38.51;100677.72;143737;611;47020;-79
2021/05/08 08:46:01;;;;;;;7.68;2.45;;;;;;;27.02;37.59;100665.53;143740;564;46008;-79
2021/05/08 08:48:28;;;;;;;7.37;2.40;;;;;;;26.93;37.88;100672.69;143738;572;46018;-79
2021/05/08 08:50:56;;;;;;;11.38;2.10;;;;;;;26.87;37.41;100673.28;143738;617;46019;-80
2021/05/08 08:53:23;;;;;;;4.25;1.90;;;;;;;26.84;37.54;100678.97;143734;620;47019;-80
2021/05/08 08:55:55;;;;;;;11.38;2.25;;;;;;;26.85;38.04;100676.12;143740;575;46008;-78
2021/05/08 08:58:29;;;;;;;5.15;2.20;;;;;;;26.82;38.23;100687.22;143741;597;46017;-77
2021/05/08 09:01:05;;;;;;;5.85;1.98;;;;;;;26.76;38.31;100685.09;143742;650;45021;-77
2021/05/08 09:03:33;;;;;;;6.82;2.20;;;;;;;26.69;38.93;100687.50;143732;589;47008;-78
2021/05/08 09:06:01;;;;;;;7.43;2.20;;;;;;;26.81;38.56;100698.13;143738;570;46008;-80
2021/05/08 09:08:29;;;;;;;9.57;2.35;;;;;;;26.72;38.90;100694.47;143740;592;46008;-80
2021/05/08 09:11:23;;;;;;;4.47;1.90;;;;;;;26.86;38.15;100695.84;143743;579;46008;-77
2021/05/08 09:14:24;;;;;;;7.70;2.30;;;;;;;26.34;39.55;100672.06;143738;599;46012;-80
2021/05/08 09:17:17;;;;;;;6.00;1.90;;;;;;;26.69;38.21;100694.75;143739;574;46008;-80
2021/05/08 09:19:54;;;;;;;5.50;1.83;;;;;;;26.73;37.99;100698.88;143738;622;46008;-79
2021/05/08 09:22:41;;;;;;;6.15;1.90;;;;;;;26.86;38.56;100701.25;143742;591;46008;-79
2021/05/08 09:25:19;;;;;;;5.62;2.10;;;;;;;27.03;38.34;100683.41;143734;573;46010;-80
2021/05/08 09:27:58;;;;;;;6.50;1.98;;;;;;;26.97;37.49;100708.25;143737;614;46020;-78
2021/05/08 09:30:28;;;;;;;7.75;2.20;;;;;;;26.99;37.80;100708.94;143737;589;46019;-82
2021/05/08 09:33:02;;;;;;;7.25;1.90;;;;;;;27.11;37.76;100704.22;143742;601;46020;-80
2021/05/08 09:35:34;;;;;;;9.50;1.80;;;;;;;27.10;36.97;100708.75;143740;569;46010;-79
2021/05/08 09:38:35;;;;;;;7.10;2.17;;;;;;;26.99;36.46;100703.56;143740;628;46008;-80
2021/05/08 09:41:03;;;;;;;7.65;2.05;;;;;;;26.96;37.54;100693.09;143742;609;46008;-80
2021/05/08 09:43:31;;;;;;;7.45;1.73;;;;;;;26.74;37.18;100721.28;143740;592;46021;-78
2021/05/08 09:45:58;;;;;;;7.00;1.83;;;;;;;26.41;37.54;100723.47;143738;596;47029;-77
2021/05/08 09:48:34;;;;;;;6.85;2.50;;;;;;;26.32;37.69;100714.44;143740;579;46020;-77
2021/05/08 09:51:26;;;;;;;7.43;2.30;;;;;;;26.17;38.69;100706.81;143741;719;46024;-79
2021/05/08 09:54:21;;;;;;;4.90;2.15;;;;;;;26.27;38.21;100705.94;143740;612;47010;-80
2021/05/08 09:56:49;;;;;;;4.90;1.80;;;;;;;26.33;37.86;100706.22;143739;605;46010;-78
2021/05/08 09:59:38;;;;;;;5.60;1.90;;;;;;;26.46;36.86;100700.53;143741;632;46020;-75
2021/05/08 10:02:15;;;;;;;6.22;2.70;;;;;;;26.32;37.43;100714.44;143740;697;46020;-80
2021/05/08 10:04:48;;;;;;;7.40;2.05;;;;;;;26.43;38.00;100699.97;143741;577;46994;-79
2021/05/08 10:07:28;;;;;;;4.45;1.95;;;;;;;26.46;38.20;100700.53;143736;589;47010;-79
2021/05/08 10:09:59;;;;;;;8.15;2.53;;;;;;;26.57;37.34;100699.47;143739;580;46020;-80
2021/05/08 10:12:28;;;;;;;5.62;1.73;;;;;;;26.71;37.13;100698.19;143737;657;46909;-76
2021/05/08 10:14:58;;;;;;;6.45;2.58;;;;;;;26.67;37.32;100691.37;143741;587;46021;-79
2021/05/08 10:17:30;;;;;;;6.05;2.17;;;;;;;27.03;37.81;100694.19;143740;572;46016;-78
2021/05/08 10:20:09;;;;;;;5.60;1.90;;;;;;;27.37;35.93;100698.97;143738;582;46020;-80
2021/05/08 10:22:59;;;;;;;6.43;1.90;;;;;;;27.74;35.80;100700.66;143739;599;47006;-79
2021/05/08 10:25:27;;;;;;;5.65;2.03;;;;;;;27.97;35.05;100700.16;143742;580;47006;-79
2021/05/08 10:27:55;;;;;;;8.45;2.00;;;;;;;27.90;34.97;100699.94;143739;570;46909;-78
2021/05/08 10:30:40;;;;;;;4.97;2.20;;;;;;;27.88;35.40;100699.25;143738;586;46008;-74
2021/05/08 10:33:16;;;;;;;8.25;2.40;;;;;;;28.26;34.15;100693.66;143741;584;46018;-76
2021/05/08 10:35:49;;;;;;;6.75;2.30;;;;;;;28.37;34.24;100682.56;143738;601;46020;-75
2021/05/08 10:38:23;;;;;;;7.37;2.15;;;;;;;28.36;34.49;100678.16;143736;581;46029;-75
2021/05/08 10:41:05;;;;;;;6.35;2.03;;;;;;;28.50;35.03;100669.47;143742;573;46010;-75
2021/05/08 10:43:57;;;;;;;10.75;2.37;;;;;;;28.52;34.67;100653.13;143740;576;46008;-75
2021/05/08 10:46:28;;;;;;;6.43;2.05;;;;;;;28.89;34.02;100672.72;143742;599;46024;-74
2021/05/08 10:49:27;;;;;;;6.05;2.20;;;;;;;28.97;33.46;100667.34;143737;602;46020;-73
2021/05/08 10:52:02;;;;;;;6.28;2.10;;;;;;;28.99;33.52;100668.88;143740;570;46009;-75
2021/05/08 10:54:58;;;;;;;5.93;2.10;;;;;;;28.95;32.96;100645.03;143740;564;46018;-75
2021/05/08 10:57:28;;;;;;;8.95;2.40;;;;;;;29.07;32.56;100667.19;143741;593;46020;-76
2021/05/08 11:00:24;;;;;;;11.68;2.33;;;;;;;28.87;32.82;100635.88;143742;587;46010;-73
2021/05/08 11:03:01;;;;;;;6.07;2.00;;;;;;;28.76;32.87;100663.22;143740;585;46020;-74
2021/05/08 11:05:39;;;;;;;4.80;2.22;;;;;;;29.00;32.68;100658.88;143738;570;46018;-75
2021/05/08 11:08:50;;;;;;;8.02;2.33;;;;;;;28.70;33.13;100655.75;143741;647;46020;-75
2021/05/08 11:11:24;;;;;;;6.25;2.12;;;;;;;28.65;33.31;100652.69;143739;670;46008;-74
2021/05/08 11:14:00;;;;;;;6.53;1.95;;;;;;;28.75;32.70;100656.12;143737;570;46021;-75
2021/05/08 11:16:32;;;;;;;7.20;1.90;;;;;;;28.64;33.63;100651.00;143740;649;46020;-77
2021/05/08 11:19:01;;;;;;;6.68;2.00;;;;;;;28.56;33.35;100648.25;143741;608;46020;-77
2021/05/08 11:21:46;;;;;;;8.07;1.87;;;;;;;28.62;32.38;100653.81;143740;625;46017;-76
2021/05/08 11:24:32;;;;;;;6.45;1.92;;;;;;;28.74;32.72;100651.72;143741;579;46010;-77
2021/05/08 11:27:00;;;;;;;5.70;1.80;;;;;;;28.86;32.63;100654.97;143738;581;46018;-75
2021/05/08 11:29:31;;;;;;;7.95;1.87;;;;;;;29.20;32.21;100665.69;143742;663;46021;-75
2021/05/08 11:32:03;;;;;;;5.65;1.85;;;;;;;29.15;32.32;100662.62;143737;577;47012;-75
2021/05/08 11:34:32;;;;;;;7.75;1.98;;;;;;;29.04;32.85;100661.09;143742;607;46008;-75
2021/05/08 11:37:08;;;;;;;4.78;2.00;;;;;;;29.20;32.47;100659.44;143741;689;47008;-76
2021/05/08 11:39:46;;;;;;;6.57;1.83;;;;;;;29.26;32.74;100647.97;143743;571;46021;-76
2021/05/08 11:42:16;;;;;;;5.03;2.00;;;;;;;29.29;32.51;100654.91;143741;596;46010;-76